Edmonton, Australia
Current Conditions -  °F | °C
As of 2:00 PM on Sunday 25 Jan 2015 (Local Time) from YBCS Reporting Station
Few Clouds Few Clouds  
Wind Chill: 88°   Ceiling: Unl
Heat Index: 102°   Visibility: 6mi
Dew Point: 79°   Wind: 10mph
Humidity: 75%   Direction: 10°N
Pressure: 29.71"   Gusts: NA
Location:  17.02°S, 145.74°E
Report Text: YBCS 250400Z 01009KT 9999 FEW028 31/26 Q1006 NOSIG
Loading
Personal Weather Stations






























Interactive Weather Map New forecast layout! Learn more

10-Day Weather Forecast

Advertisements
Track Severe Weather on mobile